Time;durP1;ratioP1;P1;durP2;ratioP2;P2;SDS_P1;SDS_P2;PMS_P1;PMS_P2;Temp;Humidity;BMP_temperature;BMP_pressure;BME280_temperature;BME280_humidity;BME280_pressure;Samples;Min_cycle;Max_cycle;Signal;HPM_P1;HPM_P2
2021/12/06 00:00:22;;;;;;;12.80;5.40;;;;;;;;;;5043052;28;20052;-67
2021/12/06 00:02:50;;;;;;;14.35;6.10;;;;;;;;;;5046019;28;20131;-68
2021/12/06 00:05:18;;;;;;;11.85;4.78;;;;;;;;;;5058390;28;20174;-68
2021/12/06 00:07:45;;;;;;;8.48;4.03;;;;;;;;;;5051906;28;20106;-68
2021/12/06 00:10:12;;;;;;;14.02;6.72;;;;;;;;;;5046484;28;20095;-68
2021/12/06 00:12:39;;;;;;;14.35;6.78;;;;;;;;;;5051478;28;20099;-68
2021/12/06 00:15:06;;;;;;;7.30;4.05;;;;;;;;;;5054046;28;20041;-68
2021/12/06 00:17:33;;;;;;;8.88;3.60;;;;;;;;;;5051460;28;20049;-68
2021/12/06 00:19:59;;;;;;;6.60;2.88;;;;;;;;;;5050845;28;20072;-68
2021/12/06 00:22:27;;;;;;;6.78;2.58;;;;;;;;;;5051346;28;20551;-68
2021/12/06 00:24:56;;;;;;;3.40;2.15;;;;;;;;;;5049810;28;20045;-68
2021/12/06 00:27:23;;;;;;;5.53;2.35;;;;;;;;;;5051219;28;20045;-68
2021/12/06 00:29:50;;;;;;;5.90;3.40;;;;;;;;;;5051513;28;20049;-68
2021/12/06 00:32:17;;;;;;;6.22;2.63;;;;;;;;;;5051789;28;20074;-68
2021/12/06 00:34:44;;;;;;;6.35;2.38;;;;;;;;;;5048642;28;20045;-68
2021/12/06 00:37:17;;;;;;;3.00;1.92;;;;;;;;;;5049110;28;20056;-68
2021/12/06 00:39:47;;;;;;;10.27;3.20;;;;;;;;;;5050733;28;20095;-68
2021/12/06 00:42:13;;;;;;;6.35;2.72;;;;;;;;;;5049348;28;20077;-68
2021/12/06 00:44:40;;;;;;;6.38;2.50;;;;;;;;;;5050869;28;20085;-68
2021/12/06 00:47:08;;;;;;;6.53;3.00;;;;;;;;;;5050210;28;20550;-68
2021/12/06 00:49:34;;;;;;;4.15;2.25;;;;;;;;;;5045185;28;20050;-68
2021/12/06 00:52:01;;;;;;;7.07;2.40;;;;;;;;;;5050601;28;20075;-68
2021/12/06 00:54:29;;;;;;;5.45;2.75;;;;;;;;;;5058813;28;20073;-68
2021/12/06 00:56:57;;;;;;;6.15;2.97;;;;;;;;;;5050480;28;20041;-68
2021/12/06 00:59:23;;;;;;;5.20;2.70;;;;;;;;;;5050354;28;20072;-68
2021/12/06 01:01:51;;;;;;;7.85;3.08;;;;;;;;;;5049784;28;20049;-68
2021/12/06 01:04:17;;;;;;;6.90;2.83;;;;;;;;;;5049514;28;20052;-68
2021/12/06 01:06:44;;;;;;;5.63;2.85;;;;;;;;;;5050082;28;20068;-67
2021/12/06 01:09:10;;;;;;;14.52;5.68;;;;;;;;;;5041278;28;20103;-68
2021/12/06 01:11:37;;;;;;;6.43;3.33;;;;;;;;;;5049655;28;20102;-68
2021/12/06 01:14:05;;;;;;;6.90;3.35;;;;;;;;;;5044004;28;20076;-68
2021/12/06 01:16:32;;;;;;;5.07;3.03;;;;;;;;;;5047234;28;20091;-68
2021/12/06 01:18:58;;;;;;;7.70;3.40;;;;;;;;;;5049119;28;20162;-68
2021/12/06 01:21:32;;;;;;;8.77;2.80;;;;;;;;;;5050093;28;20049;-68
2021/12/06 01:24:00;;;;;;;5.00;2.75;;;;;;;;;;5050526;28;20073;-68
2021/12/06 01:26:40;;;;;;;7.63;3.45;;;;;;;;;;5050352;28;20503;-68
2021/12/06 01:29:35;;;;;;;7.93;3.20;;;;;;;;;;5049559;28;20049;-68
2021/12/06 01:32:06;;;;;;;9.63;3.38;;;;;;;;;;5047881;28;20084;-68
2021/12/06 01:40:01;;;;;;;9.80;5.00;;;;;;;;;;5054692;28;20414;-68
2021/12/06 01:42:28;;;;;;;7.85;4.10;;;;;;;;;;5049629;28;20056;-68
2021/12/06 01:44:57;;;;;;;10.73;3.67;;;;;;;;;;5050182;28;20072;-68
2021/12/06 01:47:29;;;;;;;6.55;3.45;;;;;;;;;;5049907;28;20533;-68
2021/12/06 01:49:57;;;;;;;8.73;4.03;;;;;;;;;;5049793;28;20495;-68
2021/12/06 01:52:26;;;;;;;9.40;4.75;;;;;;;;;;5053397;28;20138;-68
2021/12/06 01:54:54;;;;;;;5.32;3.65;;;;;;;;;;5056441;28;20053;-68
2021/12/06 01:57:22;;;;;;;9.77;4.22;;;;;;;;;;5055380;28;20072;-68
2021/12/06 01:59:49;;;;;;;8.20;3.58;;;;;;;;;;5051846;28;20094;-68
2021/12/06 02:02:17;;;;;;;7.78;3.85;;;;;;;;;;5053152;28;20133;-68
2021/12/06 02:04:45;;;;;;;12.10;4.07;;;;;;;;;;5053147;28;20095;-68
2021/12/06 02:07:16;;;;;;;7.88;4.47;;;;;;;;;;5053026;28;20966;-68
2021/12/06 02:09:42;;;;;;;8.23;4.30;;;;;;;;;;5052491;28;20076;-68
2021/12/06 02:12:11;;;;;;;10.15;5.30;;;;;;;;;;5053665;28;20077;-68
2021/12/06 02:14:46;;;;;;;9.27;5.15;;;;;;;;;;5053125;28;20045;-68
2021/12/06 02:17:18;;;;;;;7.57;4.60;;;;;;;;;;5050550;28;20045;-68
2021/12/06 02:19:49;;;;;;;8.00;4.63;;;;;;;;;;5050123;28;20048;-68
2021/12/06 02:22:20;;;;;;;10.15;3.65;;;;;;;;;;5055134;28;20406;-68
2021/12/06 02:24:47;;;;;;;7.70;3.45;;;;;;;;;;5051133;28;20416;-68
2021/12/06 02:27:15;;;;;;;6.60;3.03;;;;;;;;;;5061077;28;20060;-68
2021/12/06 02:29:43;;;;;;;7.20;3.20;;;;;;;;;;5054003;28;20040;-67
2021/12/06 02:48:24;;;;;;;8.20;4.25;;;;;;;;;;5328611;23;20060;-83
2021/12/06 02:50:53;;;;;;;7.88;4.40;;;;;;;;;;5032928;28;20072;-83
2021/12/06 02:53:22;;;;;;;13.25;5.30;;;;;;;;;;5034941;28;20073;-84
2021/12/06 02:55:52;;;;;;;12.13;6.38;;;;;;;;;;5041411;28;20036;-83
2021/12/06 02:58:44;;;;;;;12.55;7.03;;;;;;;;;;5040554;28;20065;-84
2021/12/06 03:01:11;;;;;;;13.63;6.75;;;;;;;;;;5045869;28;20548;-84
2021/12/06 03:03:40;;;;;;;13.48;6.93;;;;;;;;;;5039303;28;20068;-83
2021/12/06 03:06:09;;;;;;;18.17;8.40;;;;;;;;;;5038700;28;20099;-84
2021/12/06 03:08:38;;;;;;;21.92;7.30;;;;;;;;;;5038897;28;20048;-84
2021/12/06 03:11:06;;;;;;;14.80;7.30;;;;;;;;;;5038842;28;20041;-84
2021/12/06 03:13:33;;;;;;;21.75;8.15;;;;;;;;;;5041551;28;20485;-83
2021/12/06 03:15:59;;;;;;;26.77;7.80;;;;;;;;;;5040587;28;20088;-83
2021/12/06 03:18:26;;;;;;;22.73;7.35;;;;;;;;;;5037549;28;20068;-84
2021/12/06 03:20:54;;;;;;;15.50;7.47;;;;;;;;;;5043618;28;20080;-83
2021/12/06 03:23:20;;;;;;;28.48;8.18;;;;;;;;;;5038722;28;20081;-83
2021/12/06 03:25:47;;;;;;;14.52;7.13;;;;;;;;;;5036125;28;20105;-83
2021/12/06 03:28:14;;;;;;;24.08;8.32;;;;;;;;;;5035705;28;20045;-82
2021/12/06 03:30:41;;;;;;;12.70;6.50;;;;;;;;;;5042359;28;20480;-83
2021/12/06 03:33:07;;;;;;;16.02;7.63;;;;;;;;;;5036053;28;20442;-83
2021/12/06 03:35:34;;;;;;;15.73;7.65;;;;;;;;;;5029259;28;20099;-83
2021/12/06 03:38:02;;;;;;;20.33;9.07;;;;;;;;;;5044186;28;20033;-83
2021/12/06 03:40:28;;;;;;;21.80;7.80;;;;;;;;;;5036256;28;20080;-83
2021/12/06 03:42:55;;;;;;;15.80;7.45;;;;;;;;;;5035717;28;20438;-82
2021/12/06 03:45:21;;;;;;;21.13;7.78;;;;;;;;;;5039575;28;20042;-84
2021/12/06 03:47:48;;;;;;;20.70;8.57;;;;;;;;;;5046033;28;20091;-83
2021/12/06 03:50:15;;;;;;;19.52;7.93;;;;;;;;;;5057188;28;20485;-83
2021/12/06 03:52:42;;;;;;;24.70;9.30;;;;;;;;;;5056480;28;20053;-83
2021/12/06 03:55:12;;;;;;;13.82;7.60;;;;;;;;;;5056464;28;20041;-83
2021/12/06 03:57:39;;;;;;;15.65;8.65;;;;;;;;;;5057117;28;20051;-83
2021/12/06 04:00:07;;;;;;;15.75;8.57;;;;;;;;;;5057974;28;20037;-84
2021/12/06 04:02:34;;;;;;;23.70;9.68;;;;;;;;;;5055062;28;20036;-83
2021/12/06 04:05:00;;;;;;;25.65;9.23;;;;;;;;;;5056086;28;20041;-84
2021/12/06 04:07:27;;;;;;;18.52;9.30;;;;;;;;;;5057919;28;20037;-84
2021/12/06 04:09:54;;;;;;;14.25;8.32;;;;;;;;;;5060370;28;20056;-84
2021/12/06 04:12:22;;;;;;;14.50;7.78;;;;;;;;;;5058218;28;20053;-84
2021/12/06 04:14:49;;;;;;;21.25;9.75;;;;;;;;;;5057226;28;20068;-83
2021/12/06 04:17:16;;;;;;;24.77;9.90;;;;;;;;;;5057278;28;20044;-84
2021/12/06 04:19:43;;;;;;;17.75;8.38;;;;;;;;;;5062881;28;20107;-83
2021/12/06 04:22:12;;;;;;;21.33;9.98;;;;;;;;;;5065661;28;20048;-84
2021/12/06 04:24:38;;;;;;;18.90;9.23;;;;;;;;;;5057410;28;20053;-84
2021/12/06 04:27:13;;;;;;;16.27;9.38;;;;;;;;;;5057126;28;20072;-83
2021/12/06 04:29:42;;;;;;;17.52;8.55;;;;;;;;;;5056314;28;20128;-83
2021/12/06 04:32:10;;;;;;;20.70;9.93;;;;;;;;;;5051684;28;20098;-84
2021/12/06 04:34:36;;;;;;;16.13;8.90;;;;;;;;;;5056685;28;20496;-84
2021/12/06 04:37:04;;;;;;;32.78;9.75;;;;;;;;;;5059499;28;20041;-84
2021/12/06 04:39:30;;;;;;;22.40;10.23;;;;;;;;;;5059688;28;20146;-83
2021/12/06 04:41:57;;;;;;;27.35;9.85;;;;;;;;;;5057324;28;20044;-83
2021/12/06 04:44:24;;;;;;;23.23;9.73;;;;;;;;;;5056905;28;20065;-83
2021/12/06 04:46:52;;;;;;;18.38;8.93;;;;;;;;;;5057517;28;20074;-83
2021/12/06 04:49:19;;;;;;;18.63;8.90;;;;;;;;;;5040176;28;20099;-83
2021/12/06 04:51:50;;;;;;;19.73;9.82;;;;;;;;;;5044892;28;20055;-83
2021/12/06 04:54:19;;;;;;;19.95;8.73;;;;;;;;;;5056771;28;20080;-82
2021/12/06 04:56:49;;;;;;;20.40;9.55;;;;;;;;;;5055165;28;20468;-82
2021/12/06 04:59:20;;;;;;;20.83;8.55;;;;;;;;;;5048383;28;20098;-82
2021/12/06 05:01:48;;;;;;;20.80;10.68;;;;;;;;;;5056413;28;20056;-83
2021/12/06 05:04:19;;;;;;;18.95;8.52;;;;;;;;;;5058791;28;20077;-84
2021/12/06 05:06:48;;;;;;;18.65;8.85;;;;;;;;;;5049467;28;20513;-84
2021/12/06 05:09:19;;;;;;;16.75;8.60;;;;;;;;;;5060798;28;20079;-82
2021/12/06 05:11:47;;;;;;;26.90;10.23;;;;;;;;;;5049241;28;20045;-83
2021/12/06 05:14:14;;;;;;;26.38;11.13;;;;;;;;;;5055943;28;20069;-83
2021/12/06 05:16:41;;;;;;;23.52;10.43;;;;;;;;;;5053122;28;20041;-83
2021/12/06 05:19:08;;;;;;;22.50;11.00;;;;;;;;;;5053768;28;20053;-83
2021/12/06 05:21:37;;;;;;;24.52;10.57;;;;;;;;;;5053020;28;20044;-84
2021/12/06 05:24:06;;;;;;;23.48;10.98;;;;;;;;;;5051736;28;20098;-83
2021/12/06 05:26:33;;;;;;;21.17;11.30;;;;;;;;;;5053378;28;20097;-82
2021/12/06 05:29:01;;;;;;;18.35;10.32;;;;;;;;;;5051504;28;20431;-82
2021/12/06 05:31:29;;;;;;;25.70;10.70;;;;;;;;;;5053410;28;20119;-83
2021/12/06 05:34:01;;;;;;;23.95;11.00;;;;;;;;;;5053261;28;20470;-83
2021/12/06 05:36:28;;;;;;;22.00;9.95;;;;;;;;;;5052772;28;20385;-83
2021/12/06 05:38:57;;;;;;;18.95;10.88;;;;;;;;;;5053862;28;20084;-83
2021/12/06 05:41:23;;;;;;;29.48;12.50;;;;;;;;;;5053406;28;20075;-82
2021/12/06 05:43:50;;;;;;;35.10;12.90;;;;;;;;;;5053557;28;20174;-83
2021/12/06 05:46:17;;;;;;;22.77;10.82;;;;;;;;;;5053160;28;20486;-83
2021/12/06 05:48:44;;;;;;;33.08;10.32;;;;;;;;;;5053479;28;20077;-84
2021/12/06 05:51:10;;;;;;;31.77;11.80;;;;;;;;;;5050576;28;20092;-83
2021/12/06 05:53:37;;;;;;;28.70;11.32;;;;;;;;;;5049623;28;20087;-84
2021/12/06 05:56:06;;;;;;;24.90;10.90;;;;;;;;;;5056496;28;20076;-83
2021/12/06 05:58:34;;;;;;;32.55;11.35;;;;;;;;;;5052502;28;20496;-84
2021/12/06 06:01:01;;;;;;;22.60;9.90;;;;;;;;;;5052645;28;20041;-83
2021/12/06 06:03:28;;;;;;;25.88;11.15;;;;;;;;;;5051470;28;20199;-84
2021/12/06 06:05:54;;;;;;;26.70;11.77;;;;;;;;;;5053057;28;20041;-83
2021/12/06 06:08:21;;;;;;;26.80;11.25;;;;;;;;;;5051637;28;20040;-83
2021/12/06 06:10:50;;;;;;;20.55;10.23;;;;;;;;;;5050968;28;20045;-84
2021/12/06 06:13:19;;;;;;;28.63;11.52;;;;;;;;;;5050035;28;20080;-84
2021/12/06 06:15:46;;;;;;;23.10;10.45;;;;;;;;;;5050253;28;20044;-84
2021/12/06 06:18:13;;;;;;;25.25;12.02;;;;;;;;;;5050206;28;20037;-84
2021/12/06 06:20:42;;;;;;;23.92;10.90;;;;;;;;;;5055116;28;20040;-84
2021/12/06 06:23:10;;;;;;;30.38;13.30;;;;;;;;;;5059325;28;20393;-84
2021/12/06 06:25:36;;;;;;;24.60;10.45;;;;;;;;;;5060746;28;20048;-84
2021/12/06 06:28:04;;;;;;;33.75;13.43;;;;;;;;;;5055964;28;20400;-84
2021/12/06 06:30:33;;;;;;;40.78;13.57;;;;;;;;;;5055021;28;20060;-84
2021/12/06 06:33:00;;;;;;;25.65;12.02;;;;;;;;;;5054385;28;20036;-84
2021/12/06 06:35:27;;;;;;;21.83;10.82;;;;;;;;;;5057513;28;20060;-84
2021/12/06 06:37:54;;;;;;;30.38;11.27;;;;;;;;;;5064150;28;20097;-85
2021/12/06 06:40:21;;;;;;;31.38;12.27;;;;;;;;;;5061784;28;20036;-84
2021/12/06 06:42:48;;;;;;;23.60;10.98;;;;;;;;;;5062479;28;20072;-84
2021/12/06 06:45:16;;;;;;;26.83;11.30;;;;;;;;;;5057216;28;20410;-84
2021/12/06 06:47:45;;;;;;;34.25;12.68;;;;;;;;;;5055860;28;20036;-84
2021/12/06 06:50:12;;;;;;;29.92;13.98;;;;;;;;;;5055922;28;20093;-84
2021/12/06 06:52:39;;;;;;;31.83;10.95;;;;;;;;;;5057455;28;20075;-83
2021/12/06 06:55:09;;;;;;;33.92;12.35;;;;;;;;;;5057390;28;20055;-84
2021/12/06 06:57:36;;;;;;;29.48;12.38;;;;;;;;;;5056985;28;20036;-84
2021/12/06 07:00:04;;;;;;;29.98;12.52;;;;;;;;;;5062152;28;20067;-84
2021/12/06 07:02:31;;;;;;;27.85;13.25;;;;;;;;;;5054562;28;20435;-83
2021/12/06 07:04:59;;;;;;;27.15;14.38;;;;;;;;;;5057087;28;20559;-84
2021/12/06 07:07:25;;;;;;;37.53;15.93;;;;;;;;;;5057501;28;20041;-84
2021/12/06 07:09:52;;;;;;;29.23;12.10;;;;;;;;;;5062895;28;20037;-84
2021/12/06 07:12:19;;;;;;;30.83;12.45;;;;;;;;;;5061152;28;20041;-84
2021/12/06 07:14:47;;;;;;;25.13;10.52;;;;;;;;;;5060781;28;20106;-84
2021/12/06 07:17:15;;;;;;;31.83;11.13;;;;;;;;;;5058164;28;20373;-84
2021/12/06 07:19:44;;;;;;;30.88;10.73;;;;;;;;;;5060137;28;20408;-84
2021/12/06 07:22:15;;;;;;;32.33;12.38;;;;;;;;;;5060782;28;20049;-84
2021/12/06 07:24:41;;;;;;;24.42;10.77;;;;;;;;;;5062183;28;20044;-83
2021/12/06 07:27:11;;;;;;;21.05;10.52;;;;;;;;;;5061552;28;20045;-83
2021/12/06 07:29:38;;;;;;;22.17;10.40;;;;;;;;;;5058470;28;20044;-83
2021/12/06 07:32:06;;;;;;;32.33;12.65;;;;;;;;;;5042425;28;20044;-84
2021/12/06 07:34:34;;;;;;;31.10;13.27;;;;;;;;;;5058472;28;20088;-84
2021/12/06 07:37:01;;;;;;;28.65;12.73;;;;;;;;;;5061787;28;20115;-84
2021/12/06 07:39:30;;;;;;;36.78;14.18;;;;;;;;;;5060326;28;20045;-84
2021/12/06 07:41:57;;;;;;;30.90;11.93;;;;;;;;;;5059926;28;20041;-84
2021/12/06 07:44:24;;;;;;;26.27;11.30;;;;;;;;;;5059476;28;20060;-84
2021/12/06 07:46:52;;;;;;;28.52;11.68;;;;;;;;;;5058514;28;20045;-84
2021/12/06 07:49:19;;;;;;;25.15;11.05;;;;;;;;;;5061313;28;20122;-84
2021/12/06 07:51:46;;;;;;;28.05;11.77;;;;;;;;;;5068184;28;20045;-84
2021/12/06 07:54:14;;;;;;;27.85;11.52;;;;;;;;;;5042381;28;20536;-84
2021/12/06 07:56:43;;;;;;;27.48;11.38;;;;;;;;;;5058604;28;20040;-84
2021/12/06 07:59:10;;;;;;;30.02;11.95;;;;;;;;;;5062689;28;20123;-84
2021/12/06 08:01:37;;;;;;;24.65;12.00;;;;;;;;;;5080226;28;20079;-84
2021/12/06 08:04:04;;;;;;;32.63;13.25;;;;;;;;;;5078022;28;20048;-84
2021/12/06 08:06:31;;;;;;;29.10;11.93;;;;;;;;;;5077663;28;20491;-84
2021/12/06 08:08:58;;;;;;;37.13;11.98;;;;;;;;;;5080368;28;20044;-85
2021/12/06 08:11:25;;;;;;;29.98;11.63;;;;;;;;;;5078975;28;20478;-84
2021/12/06 08:13:55;;;;;;;32.65;13.18;;;;;;;;;;5079373;28;20045;-84
2021/12/06 08:16:24;;;;;;;34.63;12.38;;;;;;;;;;5079444;28;20110;-85
2021/12/06 08:18:52;;;;;;;42.65;14.20;;;;;;;;;;5079398;28;20078;-85
2021/12/06 08:21:21;;;;;;;38.72;15.32;;;;;;;;;;5078973;28;20109;-85
2021/12/06 08:23:50;;;;;;;33.88;12.98;;;;;;;;;;5079921;28;20100;-85
2021/12/06 08:26:20;;;;;;;34.28;13.93;;;;;;;;;;5078874;28;20079;-85
2021/12/06 08:28:49;;;;;;;34.50;14.48;;;;;;;;;;5058447;28;20080;-85
2021/12/06 08:31:19;;;;;;;28.70;12.85;;;;;;;;;;5037858;28;20103;-84
2021/12/06 08:33:47;;;;;;;29.65;13.60;;;;;;;;;;5053495;28;20083;-84
2021/12/06 08:36:14;;;;;;;30.58;13.75;;;;;;;;;;5056472;28;20060;-85
2021/12/06 08:38:42;;;;;;;29.80;13.95;;;;;;;;;;5057146;28;20064;-85
2021/12/06 08:41:12;;;;;;;38.33;14.50;;;;;;;;;;5057917;28;20099;-85
2021/12/06 08:43:41;;;;;;;30.33;13.85;;;;;;;;;;5059846;28;20048;-85
2021/12/06 08:46:11;;;;;;;33.70;15.80;;;;;;;;;;5057820;28;20044;-85
2021/12/06 08:48:41;;;;;;;33.28;15.10;;;;;;;;;;5056284;28;20087;-86
2021/12/06 08:51:10;;;;;;;30.77;12.77;;;;;;;;;;5058443;28;20538;-85
2021/12/06 08:53:37;;;;;;;30.30;13.50;;;;;;;;;;5056798;28;20044;-85
2021/12/06 08:56:05;;;;;;;27.58;12.45;;;;;;;;;;5060722;28;20045;-85
2021/12/06 08:58:32;;;;;;;27.30;13.07;;;;;;;;;;5058980;28;20071;-85
2021/12/06 09:01:00;;;;;;;27.20;12.10;;;;;;;;;;5060429;28;20077;-85
2021/12/06 09:03:27;;;;;;;28.60;11.93;;;;;;;;;;5056611;28;20045;-84
2021/12/06 09:05:57;;;;;;;29.10;13.23;;;;;;;;;;5054678;28;20091;-84
2021/12/06 09:08:25;;;;;;;30.65;12.85;;;;;;;;;;5054696;28;20047;-84
2021/12/06 09:10:56;;;;;;;31.23;13.77;;;;;;;;;;5056183;28;20049;-85
2021/12/06 09:13:25;;;;;;;29.70;14.57;;;;;;;;;;5054954;28;20059;-85
2021/12/06 09:15:55;;;;;;;30.10;14.23;;;;;;;;;;5053733;28;20118;-85
2021/12/06 09:18:23;;;;;;;26.83;13.65;;;;;;;;;;5054374;28;20076;-84
2021/12/06 09:20:51;;;;;;;32.03;13.40;;;;;;;;;;5056175;28;20090;-85
2021/12/06 09:23:21;;;;;;;25.38;11.80;;;;;;;;;;5069628;28;20417;-85
2021/12/06 09:25:49;;;;;;;34.88;13.02;;;;;;;;;;5056433;28;20072;-85
2021/12/06 09:28:18;;;;;;;27.80;12.70;;;;;;;;;;5054230;28;20106;-85
2021/12/06 09:30:45;;;;;;;26.75;11.35;;;;;;;;;;5055717;28;20166;-84
2021/12/06 09:33:14;;;;;;;28.88;12.00;;;;;;;;;;5054540;28;20084;-85
2021/12/06 09:35:44;;;;;;;22.30;10.90;;;;;;;;;;5054908;28;20076;-84
2021/12/06 09:38:14;;;;;;;20.55;10.43;;;;;;;;;;5070451;28;20045;-85
2021/12/06 09:40:46;;;;;;;24.27;11.77;;;;;;;;;;5054608;28;20041;-85
2021/12/06 09:43:14;;;;;;;24.50;10.50;;;;;;;;;;5056181;28;20466;-85
2021/12/06 09:45:42;;;;;;;24.00;10.38;;;;;;;;;;5055648;28;20049;-85
2021/12/06 09:48:12;;;;;;;21.95;10.35;;;;;;;;;;5053435;28;20481;-85
2021/12/06 09:50:42;;;;;;;26.38;11.13;;;;;;;;;;5054826;28;20040;-85
2021/12/06 09:53:12;;;;;;;22.65;10.77;;;;;;;;;;5055186;28;20458;-85
2021/12/06 09:55:42;;;;;;;22.67;10.57;;;;;;;;;;5056615;28;20103;-85
2021/12/06 09:58:11;;;;;;;23.60;10.45;;;;;;;;;;5056602;28;20424;-84
2021/12/06 10:00:42;;;;;;;20.80;9.75;;;;;;;;;;5056504;28;20072;-84
2021/12/06 10:03:10;;;;;;;22.60;10.30;;;;;;;;;;5054929;28;20045;-85
2021/12/06 10:05:39;;;;;;;23.00;9.48;;;;;;;;;;5055631;28;20052;-85
2021/12/06 10:08:07;;;;;;;23.23;9.88;;;;;;;;;;5054126;28;20504;-84
2021/12/06 10:10:35;;;;;;;18.98;9.32;;;;;;;;;;5056908;28;20487;-85
2021/12/06 10:13:03;;;;;;;24.15;10.75;;;;;;;;;;5060463;28;20080;-85
2021/12/06 10:15:32;;;;;;;23.00;11.15;;;;;;;;;;5060685;28;20461;-85
2021/12/06 10:18:03;;;;;;;21.00;10.13;;;;;;;;;;5061246;28;20045;-85
2021/12/06 10:20:32;;;;;;;21.02;8.10;;;;;;;;;;5063862;28;20045;-85
2021/12/06 10:23:00;;;;;;;25.65;9.43;;;;;;;;;;5068099;28;20049;-85
2021/12/06 10:25:36;;;;;;;21.95;10.02;;;;;;;;;;5072502;28;20056;-85
2021/12/06 10:28:05;;;;;;;;;;;;;;;;;;5063722;28;20470;-85
2021/12/06 10:30:36;;;;;;;20.35;10.00;;;;;;;;;;5061740;28;19986;-85
2021/12/06 10:33:06;;;;;;;23.23;10.50;;;;;;;;;;5058966;28;20037;-85
2021/12/06 10:35:33;;;;;;;21.85;9.93;;;;;;;;;;5061864;28;20358;-85
2021/12/06 10:38:01;;;;;;;20.55;9.15;;;;;;;;;;5062976;28;20069;-85
2021/12/06 10:40:30;;;;;;;24.15;10.48;;;;;;;;;;5059758;28;20068;-85
2021/12/06 10:42:59;;;;;;;23.67;10.15;;;;;;;;;;5063230;28;20077;-85
2021/12/06 10:45:29;;;;;;;27.27;11.43;;;;;;;;;;5064486;28;20041;-85
2021/12/06 10:48:11;;;;;;;25.83;10.55;;;;;;;;;;5060600;28;20045;-84
2021/12/06 10:50:41;;;;;;;30.80;11.02;;;;;;;;;;5055160;28;20077;-84
2021/12/06 10:53:09;;;;;;;26.67;11.48;;;;;;;;;;5059437;28;20518;-85
2021/12/06 10:55:38;;;;;;;32.85;11.98;;;;;;;;;;5064000;28;20045;-84
2021/12/06 10:58:07;;;;;;;29.38;11.73;;;;;;;;;;5059866;28;20049;-85
2021/12/06 11:00:41;;;;;;;30.80;13.13;;;;;;;;;;5061579;28;20045;-84
2021/12/06 11:03:22;;;;;;;28.65;12.70;;;;;;;;;;5059598;28;20041;-84
2021/12/06 11:05:51;;;;;;;27.48;9.98;;;;;;;;;;5060981;28;20412;-85
2021/12/06 11:08:19;;;;;;;21.88;10.43;;;;;;;;;;5061092;28;20045;-85
2021/12/06 11:10:50;;;;;;;27.27;11.13;;;;;;;;;;5060764;28;20051;-84
2021/12/06 11:13:22;;;;;;;23.73;10.02;;;;;;;;;;5061424;28;20543;-85
2021/12/06 11:16:09;;;;;;;20.48;8.88;;;;;;;;;;5060987;28;20489;-85
2021/12/06 11:18:42;;;;;;;;;;;;;;;;;;5059263;28;20405;-85
2021/12/06 11:21:23;;;;;;;18.40;8.07;;;;;;;;;;5061335;28;20300;-85
2021/12/06 11:24:07;;;;;;;19.30;8.02;;;;;;;;;;5058972;28;20041;-85
2021/12/06 11:26:36;;;;;;;25.70;12.75;;;;;;;;;;5069178;28;20041;-84
2021/12/06 11:29:06;;;;;;;25.58;11.93;;;;;;;;;;5062339;28;20450;-85
2021/12/06 11:31:33;;;;;;;26.85;13.18;;;;;;;;;;5060009;28;20048;-84
2021/12/06 11:34:03;;;;;;;25.80;11.45;;;;;;;;;;5061815;28;20048;-85
2021/12/06 11:36:31;;;;;;;23.85;11.35;;;;;;;;;;5060509;28;20037;-85
2021/12/06 11:39:00;;;;;;;24.55;11.05;;;;;;;;;;5060365;28;20056;-85
2021/12/06 11:41:27;;;;;;;29.13;12.35;;;;;;;;;;5058828;28;20048;-85
2021/12/06 11:43:55;;;;;;;28.05;12.32;;;;;;;;;;5058870;28;20049;-84
2021/12/06 11:46:31;;;;;;;23.40;11.32;;;;;;;;;;5059410;28;20036;-85
2021/12/06 11:48:59;;;;;;;29.10;12.15;;;;;;;;;;5059392;28;20068;-85
2021/12/06 11:51:27;;;;;;;29.50;13.30;;;;;;;;;;5059517;28;20442;-85
2021/12/06 11:53:57;;;;;;;29.42;11.70;;;;;;;;;;5060860;28;20056;-85
2021/12/06 11:56:27;;;;;;;29.15;12.23;;;;;;;;;;5060262;28;20045;-85
2021/12/06 11:58:56;;;;;;;29.27;12.43;;;;;;;;;;5059471;28;20071;-85
2021/12/06 12:01:25;;;;;;;26.17;11.52;;;;;;;;;;5058952;28;20041;-85
2021/12/06 12:03:57;;;;;;;22.23;10.30;;;;;;;;;;5060381;28;20044;-84
2021/12/06 12:06:28;;;;;;;23.67;11.52;;;;;;;;;;5061453;28;20041;-85
2021/12/06 12:09:05;;;;;;;24.38;10.80;;;;;;;;;;5061197;28;20049;-85
2021/12/06 12:11:33;;;;;;;25.10;12.10;;;;;;;;;;5060858;28;20049;-85
2021/12/06 12:14:11;;;;;;;28.48;12.90;;;;;;;;;;5061073;28;20048;-85
2021/12/06 12:16:37;;;;;;;22.38;11.23;;;;;;;;;;5059725;28;20385;-86
2021/12/06 12:19:07;;;;;;;27.63;12.02;;;;;;;;;;5060688;28;20083;-85
2021/12/06 12:21:36;;;;;;;24.73;11.82;;;;;;;;;;5060515;28;20041;-86
2021/12/06 12:24:03;;;;;;;21.83;10.25;;;;;;;;;;5066150;28;20083;-85
2021/12/06 12:26:30;;;;;;;24.85;10.57;;;;;;;;;;5071131;28;20045;-86
2021/12/06 12:29:11;;;;;;;21.70;10.82;;;;;;;;;;5061520;28;20052;-86
2021/12/06 12:31:39;;;;;;;22.58;10.98;;;;;;;;;;5059668;28;20106;-86
2021/12/06 12:34:07;;;;;;;22.40;10.60;;;;;;;;;;5058463;28;20457;-85
2021/12/06 12:36:35;;;;;;;23.73;10.27;;;;;;;;;;5062016;28;20040;-85
2021/12/06 12:39:03;;;;;;;21.75;9.65;;;;;;;;;;5061886;28;20453;-85
2021/12/06 12:41:33;;;;;;;19.83;9.95;;;;;;;;;;5062130;28;20067;-85
2021/12/06 12:44:04;;;;;;;19.38;9.13;;;;;;;;;;5061262;28;20047;-85
2021/12/06 12:46:35;;;;;;;18.98;9.48;;;;;;;;;;5061472;28;20461;-85
2021/12/06 12:49:05;;;;;;;18.15;8.52;;;;;;;;;;5062727;28;20079;-85
2021/12/06 12:51:33;;;;;;;19.25;9.73;;;;;;;;;;5057795;28;20045;-85
2021/12/06 12:54:08;;;;;;;17.20;8.25;;;;;;;;;;5042011;28;20045;-85
2021/12/06 12:56:38;;;;;;;17.70;9.05;;;;;;;;;;5038005;28;20556;-85
2021/12/06 12:59:21;;;;;;;22.15;8.88;;;;;;;;;;5038557;28;20107;-85
2021/12/06 13:02:14;;;;;;;21.27;9.18;;;;;;;;;;5038636;28;20427;-85
2021/12/06 13:05:18;;;;;;;22.70;8.50;;;;;;;;;;5056777;28;20041;-85
2021/12/06 13:08:00;;;;;;;18.60;8.20;;;;;;;;;;5054813;28;20107;-84
2021/12/06 13:10:48;;;;;;;15.40;8.75;;;;;;;;;;5057334;28;20052;-85
2021/12/06 13:13:30;;;;;;;17.35;8.43;;;;;;;;;;5060843;28;20106;-85
2021/12/06 13:16:02;;;;;;;21.38;9.55;;;;;;;;;;5059539;28;20049;-86
2021/12/06 13:18:51;;;;;;;16.17;8.32;;;;;;;;;;5057881;28;20366;-85
2021/12/06 13:21:59;;;;;;;16.52;7.95;;;;;;;;;;5059602;28;20045;-86
2021/12/06 13:24:53;;;;;;;23.05;9.27;;;;;;;;;;5059766;28;20461;-86
2021/12/06 13:27:40;;;;;;;17.02;8.45;;;;;;;;;;5060681;28;20041;-86
2021/12/06 13:30:21;;;;;;;14.20;7.78;;;;;;;;;;5060376;28;20044;-85
2021/12/06 13:32:51;;;;;;;18.38;8.70;;;;;;;;;;5057087;28;20114;-85
2021/12/06 13:35:22;;;;;;;17.80;8.57;;;;;;;;;;5060254;28;20063;-85
2021/12/06 13:38:12;;;;;;;16.75;8.32;;;;;;;;;;5058562;28;20056;-86
2021/12/06 13:40:44;;;;;;;19.65;8.90;;;;;;;;;;5057566;28;20041;-85
2021/12/06 13:43:15;;;;;;;15.60;7.95;;;;;;;;;;5058287;28;20104;-85
2021/12/06 13:45:44;;;;;;;19.40;9.80;;;;;;;;;;5060876;28;20428;-85
2021/12/06 13:48:15;;;;;;;17.63;7.72;;;;;;;;;;5059104;28;20053;-85
2021/12/06 13:50:42;;;;;;;20.02;8.13;;;;;;;;;;5060566;28;20374;-86
2021/12/06 13:53:33;;;;;;;13.05;6.93;;;;;;;;;;5063726;28;20351;-86
2021/12/06 13:56:03;;;;;;;14.70;7.38;;;;;;;;;;5063273;28;20420;-85
2021/12/06 13:58:33;;;;;;;16.80;7.80;;;;;;;;;;5062653;28;20045;-85
2021/12/06 14:01:03;;;;;;;13.40;7.18;;;;;;;;;;5062649;28;20547;-85
2021/12/06 14:03:38;;;;;;;14.85;8.25;;;;;;;;;;5062589;28;20135;-85
2021/12/06 14:06:09;;;;;;;16.27;8.30;;;;;;;;;;5062423;28;20552;-85
2021/12/06 14:08:43;;;;;;;14.90;7.50;;;;;;;;;;5063381;28;20310;-86
2021/12/06 14:11:10;;;;;;;15.27;8.20;;;;;;;;;;5063298;28;20370;-86
2021/12/06 14:13:39;;;;;;;17.85;8.25;;;;;;;;;;5063655;28;20045;-85
2021/12/06 14:16:08;;;;;;;16.75;10.55;;;;;;;;;;5061817;28;20365;-85
2021/12/06 14:18:36;;;;;;;17.58;10.20;;;;;;;;;;5062900;28;20128;-86
2021/12/06 14:21:05;;;;;;;20.17;8.63;;;;;;;;;;5061404;28;20111;-86
2021/12/06 14:23:34;;;;;;;16.63;8.10;;;;;;;;;;5063811;28;20041;-86
2021/12/06 14:26:04;;;;;;;18.98;8.93;;;;;;;;;;5063639;28;20045;-86
2021/12/06 14:28:39;;;;;;;15.77;7.70;;;;;;;;;;5068850;28;20072;-86
2021/12/06 14:31:08;;;;;;;14.73;7.15;;;;;;;;;;5073608;28;20045;-86
2021/12/06 14:33:37;;;;;;;16.00;7.75;;;;;;;;;;5062587;28;20037;-85
2021/12/06 14:36:06;;;;;;;19.00;9.75;;;;;;;;;;5063167;28;20044;-85
2021/12/06 14:38:37;;;;;;;15.80;7.88;;;;;;;;;;5064461;28;20049;-85
2021/12/06 14:41:07;;;;;;;17.15;8.20;;;;;;;;;;5062733;28;20045;-85
2021/12/06 14:43:37;;;;;;;15.23;8.23;;;;;;;;;;5063106;28;20040;-85
2021/12/06 14:46:08;;;;;;;18.40;8.60;;;;;;;;;;5065257;28;20136;-85
2021/12/06 14:48:37;;;;;;;18.35;8.32;;;;;;;;;;5064421;28;20057;-85
2021/12/06 14:51:08;;;;;;;18.02;9.18;;;;;;;;;;5068343;28;20040;-85
2021/12/06 14:53:47;;;;;;;20.20;9.10;;;;;;;;;;5070524;28;20519;-84
2021/12/06 14:56:40;;;;;;;16.30;8.32;;;;;;;;;;5063752;28;20090;-85
2021/12/06 14:59:08;;;;;;;16.63;8.85;;;;;;;;;;5063983;28;20451;-84
2021/12/06 15:01:37;;;;;;;20.05;9.32;;;;;;;;;;5060456;28;20044;-85